• Join FlightAware (Why Join?)
  • Login
  • US Flag 
Rudolph Flight #1: Arrived! 
05:41PM EST


 

Airport Tracker/Info


-or-


 

Live Flight TrackerFlight Track Log ✈ N536SB ✈ 27-Apr-2013 ✈ KEYE - KSKY

Flight Track Log - Related Links

Times and Time Zones

All times are in EDT time to prevent confusion due to time zone crossing. See the N536SB flight status page for this flight to view local times or setup timezone preferences in your user account.

Time Position Orientation Groundspeed Altitude Reporting Facility
EDT Latitude Longitude Course Direction KTS MPH feet Rate Location/Type
04:00PM 39.8500 -86.2833 354° North 108 124 1,200  Level Indianapolis TRACON
04:02PM 39.8853 -86.2878 354° North 129 148 2,100 840 Climbing Chicago Center
04:03PM 39.9189 -86.2772 14° North 129 148 3,200 960 Climbing Chicago Center
04:04PM 39.9358 -86.2381 61° Northeast 124 143 4,100 780 Climbing Chicago Center
04:05PM 39.9550 -86.1953 60° Northeast 129 148 4,800 660 Climbing Chicago Center
04:06PM 39.9758 -86.1464 61° Northeast 142 163 5,500 660 Climbing Chicago Center
04:07PM 39.9972 -86.0992 59° Northeast 148 170 6,200 780 Climbing Chicago Center
04:08PM 40.0167 -86.0500 63° Northeast 151 174 7,000 780 Climbing Indianapolis TRACON
04:09PM 40.0333 -86.0000 66° East 153 176 7,700 660 Climbing Indianapolis TRACON
04:10PM 40.0667 -85.9500 49° Northeast 152 175 8,400 600 Climbing Indianapolis TRACON
04:11PM 40.0833 -85.9167 57° Northeast 155 178 8,900 180 Climbing Indianapolis TRACON
04:12PM 40.1069 -85.8400 68° East 165 190 8,900  Level Indianapolis Center
04:13PM 40.1239 -85.7769 71° East 176 203 8,900  Level Indianapolis Center
04:14PM 40.1436 -85.7164 67° East 178 205 8,900  Level Chicago Center
04:15PM 40.1619 -85.6558 68° East 178 205 8,900  Level Chicago Center
04:16PM 40.1819 -85.5975 66° East 176 203 8,900  Level Chicago Center
04:17PM 40.1997 -85.5383 69° East 174 200 8,900  Level Chicago Center
04:18PM 40.2189 -85.4683 70° East 174 200 8,900  Level Chicago Center
04:19PM 40.2372 -85.4089 68° East 175 201 8,900  Level Chicago Center
04:20PM 40.2658 -85.3556 55° Northeast 177 204 9,000 60 Climbing Chicago Center
04:21PM 40.2731 -85.3369 63° Northeast 176 203 9,000  Level Indianapolis Center
04:22PM 40.2964 -85.2806 62° Northeast 177 204 9,000  Level Indianapolis Center
04:23PM 40.3214 -85.2250 59° Northeast 175 201 9,000  Level Indianapolis Center
04:24PM 40.3475 -85.1686 59° Northeast 178 205 9,000  Level Indianapolis Center
04:25PM 40.3742 -85.1133 58° Northeast 179 206 9,000  Level Indianapolis Center
04:26PM 40.3981 -85.0589 60° Northeast 173 199 9,000  Level Indianapolis Center
04:27PM 40.4236 -85.0022 59° Northeast 177 204 9,000  Level Indianapolis Center
04:28PM 40.4492 -84.9494 58° Northeast 172 198 9,000  Level Indianapolis Center
04:29PM 40.4753 -84.8928 59° Northeast 174 200 9,000  Level Indianapolis Center
04:30PM 40.5011 -84.8381 58° Northeast 174 200 9,000  Level Indianapolis Center
04:31PM 40.5244 -84.7828 61° Northeast 172 198 9,000  Level Indianapolis Center
04:32PM 40.5489 -84.7275 60° Northeast 172 198 9,000  Level Indianapolis Center
04:33PM 40.5781 -84.6639 59° Northeast 171 197 9,000  Level Indianapolis Center
04:34PM 40.6031 -84.6075 60° Northeast 175 201 9,000  Level Indianapolis Center
04:35PM 40.6289 -84.5547 57° Northeast 173 199 9,000  Level Indianapolis Center
04:36PM 40.6494 -84.5108 58° Northeast 176 203 9,000  Level Chicago Center